sensor_id;sensor_type;location;lat;lon;timestamp;P1;durP1;ratioP1;P2;durP2;ratioP2
22632;SDS011;11483;55.828;37.488;2023-03-05T00:00:41;0.70;;;0.70;;
22632;SDS011;11483;55.828;37.488;2023-03-05T00:03:07;1.13;;;0.87;;
22632;SDS011;11483;55.828;37.488;2023-03-05T00:05:32;2.70;;;1.07;;
22632;SDS011;11483;55.828;37.488;2023-03-05T00:07:58;2.17;;;1.10;;
22632;SDS011;11483;55.828;37.488;2023-03-05T00:10:24;1.37;;;1.00;;
22632;SDS011;11483;55.828;37.488;2023-03-05T00:12:51;3.53;;;1.20;;
22632;SDS011;11483;55.828;37.488;2023-03-05T00:15:16;2.47;;;1.00;;
22632;SDS011;11483;55.828;37.488;2023-03-05T00:17:42;2.23;;;0.90;;
22632;SDS011;11483;55.828;37.488;2023-03-05T00:20:08;2.10;;;1.03;;
22632;SDS011;11483;55.828;37.488;2023-03-05T00:22:35;2.57;;;1.00;;
22632;SDS011;11483;55.828;37.488;2023-03-05T00:25:01;1.50;;;1.10;;
22632;SDS011;11483;55.828;37.488;2023-03-05T00:27:28;3.03;;;1.23;;
22632;SDS011;11483;55.828;37.488;2023-03-05T00:29:54;6.70;;;1.27;;
22632;SDS011;11483;55.828;37.488;2023-03-05T00:32:20;2.60;;;1.03;;
22632;SDS011;11483;55.828;37.488;2023-03-05T00:34:46;1.53;;;0.97;;
22632;SDS011;11483;55.828;37.488;2023-03-05T00:37:13;2.27;;;0.97;;
22632;SDS011;11483;55.828;37.488;2023-03-05T00:39:40;6.23;;;1.13;;
22632;SDS011;11483;55.828;37.488;2023-03-05T00:42:06;3.10;;;1.13;;
22632;SDS011;11483;55.828;37.488;2023-03-05T00:44:32;4.47;;;1.10;;
22632;SDS011;11483;55.828;37.488;2023-03-05T00:46:58;3.03;;;1.27;;
22632;SDS011;11483;55.828;37.488;2023-03-05T00:49:24;1.63;;;0.93;;
22632;SDS011;11483;55.828;37.488;2023-03-05T00:51:50;4.17;;;1.10;;
22632;SDS011;11483;55.828;37.488;2023-03-05T00:54:16;2.07;;;1.03;;
22632;SDS011;11483;55.828;37.488;2023-03-05T00:56:42;1.93;;;1.03;;
22632;SDS011;11483;55.828;37.488;2023-03-05T00:59:08;2.83;;;1.03;;
22632;SDS011;11483;55.828;37.488;2023-03-05T01:01:35;2.20;;;1.17;;
22632;SDS011;11483;55.828;37.488;2023-03-05T01:04:01;3.00;;;1.10;;
22632;SDS011;11483;55.828;37.488;2023-03-05T01:06:27;3.37;;;1.20;;
22632;SDS011;11483;55.828;37.488;2023-03-05T01:08:53;1.37;;;1.20;;
22632;SDS011;11483;55.828;37.488;2023-03-05T01:11:20;1.40;;;0.90;;
22632;SDS011;11483;55.828;37.488;2023-03-05T01:13:46;1.90;;;0.80;;
22632;SDS011;11483;55.828;37.488;2023-03-05T01:16:12;2.93;;;0.90;;
22632;SDS011;11483;55.828;37.488;2023-03-05T01:18:38;0.70;;;0.70;;
22632;SDS011;11483;55.828;37.488;2023-03-05T01:21:06;1.13;;;0.80;;
22632;SDS011;11483;55.828;37.488;2023-03-05T01:23:32;1.67;;;1.00;;
22632;SDS011;11483;55.828;37.488;2023-03-05T01:25:59;1.80;;;1.17;;
22632;SDS011;11483;55.828;37.488;2023-03-05T01:28:26;1.33;;;0.80;;
22632;SDS011;11483;55.828;37.488;2023-03-05T01:30:52;1.00;;;0.80;;
22632;SDS011;11483;55.828;37.488;2023-03-05T01:33:18;1.37;;;0.93;;
22632;SDS011;11483;55.828;37.488;2023-03-05T01:35:45;2.97;;;0.80;;
22632;SDS011;11483;55.828;37.488;2023-03-05T01:38:12;2.20;;;0.77;;
22632;SDS011;11483;55.828;37.488;2023-03-05T01:40:38;2.20;;;0.90;;
22632;SDS011;11483;55.828;37.488;2023-03-05T01:45:35;1.53;;;0.90;;
22632;SDS011;11483;55.828;37.488;2023-03-05T01:48:02;1.27;;;0.83;;
22632;SDS011;11483;55.828;37.488;2023-03-05T01:50:28;1.47;;;0.90;;
22632;SDS011;11483;55.828;37.488;2023-03-05T01:52:57;2.37;;;0.77;;
22632;SDS011;11483;55.828;37.488;2023-03-05T01:55:26;0.97;;;0.77;;
22632;SDS011;11483;55.828;37.488;2023-03-05T01:57:56;3.57;;;0.77;;
22632;SDS011;11483;55.828;37.488;2023-03-05T02:00:31;3.43;;;0.73;;
22632;SDS011;11483;55.828;37.488;2023-03-05T02:03:02;3.63;;;1.00;;
22632;SDS011;11483;55.828;37.488;2023-03-05T02:05:32;1.23;;;0.50;;
22632;SDS011;11483;55.828;37.488;2023-03-05T02:08:00;1.57;;;0.80;;
22632;SDS011;11483;55.828;37.488;2023-03-05T02:10:31;4.10;;;0.80;;
22632;SDS011;11483;55.828;37.488;2023-03-05T02:13:01;1.87;;;0.77;;
22632;SDS011;11483;55.828;37.488;2023-03-05T02:15:31;2.10;;;0.80;;
22632;SDS011;11483;55.828;37.488;2023-03-05T02:17:58;1.13;;;0.80;;
22632;SDS011;11483;55.828;37.488;2023-03-05T02:20:27;0.70;;;0.70;;
22632;SDS011;11483;55.828;37.488;2023-03-05T02:22:55;1.67;;;1.10;;
22632;SDS011;11483;55.828;37.488;2023-03-05T02:25:23;1.73;;;0.80;;
22632;SDS011;11483;55.828;37.488;2023-03-05T02:30:30;1.60;;;0.90;;
22632;SDS011;11483;55.828;37.488;2023-03-05T02:32:56;3.30;;;1.03;;
22632;SDS011;11483;55.828;37.488;2023-03-05T02:35:22;5.00;;;0.97;;
22632;SDS011;11483;55.828;37.488;2023-03-05T02:37:49;4.27;;;1.20;;
22632;SDS011;11483;55.828;37.488;2023-03-05T02:40:15;4.13;;;1.27;;
22632;SDS011;11483;55.828;37.488;2023-03-05T02:42:41;3.40;;;0.93;;
22632;SDS011;11483;55.828;37.488;2023-03-05T02:45:07;7.30;;;1.20;;
22632;SDS011;11483;55.828;37.488;2023-03-05T02:47:34;2.73;;;1.30;;
22632;SDS011;11483;55.828;37.488;2023-03-05T02:50:00;6.20;;;1.53;;
22632;SDS011;11483;55.828;37.488;2023-03-05T02:52:26;2.00;;;1.17;;
22632;SDS011;11483;55.828;37.488;2023-03-05T02:54:53;4.03;;;1.20;;
22632;SDS011;11483;55.828;37.488;2023-03-05T02:57:19;2.53;;;1.00;;
22632;SDS011;11483;55.828;37.488;2023-03-05T02:59:45;3.73;;;1.20;;
22632;SDS011;11483;55.828;37.488;2023-03-05T03:02:12;2.23;;;1.23;;
22632;SDS011;11483;55.828;37.488;2023-03-05T03:04:38;5.90;;;1.20;;
22632;SDS011;11483;55.828;37.488;2023-03-05T03:07:04;2.17;;;1.20;;
22632;SDS011;11483;55.828;37.488;2023-03-05T03:09:30;2.83;;;1.30;;
22632;SDS011;11483;55.828;37.488;2023-03-05T03:11:58;3.83;;;1.53;;
22632;SDS011;11483;55.828;37.488;2023-03-05T03:14:25;3.13;;;1.23;;
22632;SDS011;11483;55.828;37.488;2023-03-05T03:16:51;3.93;;;1.40;;
22632;SDS011;11483;55.828;37.488;2023-03-05T03:19:17;2.80;;;1.50;;
22632;SDS011;11483;55.828;37.488;2023-03-05T03:21:42;6.17;;;1.30;;
22632;SDS011;11483;55.828;37.488;2023-03-05T03:24:10;4.17;;;1.37;;
22632;SDS011;11483;55.828;37.488;2023-03-05T03:26:35;2.93;;;1.17;;
22632;SDS011;11483;55.828;37.488;2023-03-05T03:29:01;2.90;;;1.10;;
22632;SDS011;11483;55.828;37.488;2023-03-05T03:31:27;6.33;;;1.00;;
22632;SDS011;11483;55.828;37.488;2023-03-05T03:33:53;2.83;;;0.93;;
22632;SDS011;11483;55.828;37.488;2023-03-05T03:36:19;2.53;;;1.33;;
22632;SDS011;11483;55.828;37.488;2023-03-05T03:38:45;3.13;;;1.07;;
22632;SDS011;11483;55.828;37.488;2023-03-05T03:41:10;2.00;;;1.00;;
22632;SDS011;11483;55.828;37.488;2023-03-05T03:43:36;2.00;;;1.20;;
22632;SDS011;11483;55.828;37.488;2023-03-05T03:46:06;3.93;;;1.27;;
22632;SDS011;11483;55.828;37.488;2023-03-05T03:48:32;5.67;;;1.00;;
22632;SDS011;11483;55.828;37.488;2023-03-05T03:51:02;6.90;;;0.90;;
22632;SDS011;11483;55.828;37.488;2023-03-05T03:53:29;2.93;;;1.00;;
22632;SDS011;11483;55.828;37.488;2023-03-05T03:55:58;1.07;;;0.70;;
22632;SDS011;11483;55.828;37.488;2023-03-05T03:58:24;1.63;;;1.07;;
22632;SDS011;11483;55.828;37.488;2023-03-05T04:00:50;0.60;;;0.60;;
22632;SDS011;11483;55.828;37.488;2023-03-05T04:03:16;0.80;;;0.80;;
22632;SDS011;11483;55.828;37.488;2023-03-05T04:05:42;3.57;;;0.83;;
22632;SDS011;11483;55.828;37.488;2023-03-05T04:08:07;0.90;;;0.60;;
22632;SDS011;11483;55.828;37.488;2023-03-05T04:10:39;5.70;;;1.47;;
22632;SDS011;11483;55.828;37.488;2023-03-05T04:13:05;1.37;;;0.80;;
22632;SDS011;11483;55.828;37.488;2023-03-05T04:15:31;1.23;;;0.77;;
22632;SDS011;11483;55.828;37.488;2023-03-05T04:17:58;5.13;;;1.10;;
22632;SDS011;11483;55.828;37.488;2023-03-05T04:20:23;2.07;;;0.70;;
22632;SDS011;11483;55.828;37.488;2023-03-05T04:22:49;4.90;;;0.83;;
22632;SDS011;11483;55.828;37.488;2023-03-05T04:25:15;1.73;;;0.67;;
22632;SDS011;11483;55.828;37.488;2023-03-05T04:27:41;0.70;;;0.70;;
22632;SDS011;11483;55.828;37.488;2023-03-05T04:30:10;3.23;;;0.80;;
22632;SDS011;11483;55.828;37.488;2023-03-05T04:32:38;2.20;;;0.90;;
22632;SDS011;11483;55.828;37.488;2023-03-05T04:35:05;2.00;;;0.83;;
22632;SDS011;11483;55.828;37.488;2023-03-05T04:37:31;2.43;;;0.80;;
22632;SDS011;11483;55.828;37.488;2023-03-05T04:39:57;4.53;;;0.90;;
22632;SDS011;11483;55.828;37.488;2023-03-05T04:42:23;1.03;;;0.80;;
22632;SDS011;11483;55.828;37.488;2023-03-05T04:44:49;0.83;;;0.67;;
22632;SDS011;11483;55.828;37.488;2023-03-05T04:47:15;1.50;;;0.80;;
22632;SDS011;11483;55.828;37.488;2023-03-05T04:49:42;2.53;;;1.00;;
22632;SDS011;11483;55.828;37.488;2023-03-05T04:52:09;3.80;;;0.80;;
22632;SDS011;11483;55.828;37.488;2023-03-05T04:54:35;2.20;;;0.83;;
22632;SDS011;11483;55.828;37.488;2023-03-05T04:57:01;2.03;;;0.90;;
22632;SDS011;11483;55.828;37.488;2023-03-05T04:59:27;2.53;;;0.90;;
22632;SDS011;11483;55.828;37.488;2023-03-05T05:01:53;5.10;;;0.80;;
22632;SDS011;11483;55.828;37.488;2023-03-05T05:04:19;1.47;;;0.80;;
22632;SDS011;11483;55.828;37.488;2023-03-05T05:06:45;0.73;;;0.70;;
22632;SDS011;11483;55.828;37.488;2023-03-05T05:09:11;2.33;;;0.70;;
22632;SDS011;11483;55.828;37.488;2023-03-05T05:11:37;1.13;;;0.80;;
22632;SDS011;11483;55.828;37.488;2023-03-05T05:14:03;0.67;;;0.67;;
22632;SDS011;11483;55.828;37.488;2023-03-05T05:16:29;2.00;;;1.10;;
22632;SDS011;11483;55.828;37.488;2023-03-05T05:18:55;3.33;;;0.67;;
22632;SDS011;11483;55.828;37.488;2023-03-05T05:21:21;1.43;;;0.80;;
22632;SDS011;11483;55.828;37.488;2023-03-05T05:23:47;2.23;;;0.80;;
22632;SDS011;11483;55.828;37.488;2023-03-05T05:26:13;0.93;;;0.70;;
22632;SDS011;11483;55.828;37.488;2023-03-05T05:28:40;0.60;;;0.60;;
22632;SDS011;11483;55.828;37.488;2023-03-05T05:31:08;4.00;;;1.03;;
22632;SDS011;11483;55.828;37.488;2023-03-05T05:33:35;1.00;;;0.80;;
22632;SDS011;11483;55.828;37.488;2023-03-05T05:36:04;0.67;;;0.67;;
22632;SDS011;11483;55.828;37.488;2023-03-05T05:38:32;1.13;;;0.77;;
22632;SDS011;11483;55.828;37.488;2023-03-05T05:41:09;4.60;;;0.80;;
22632;SDS011;11483;55.828;37.488;2023-03-05T05:43:37;1.30;;;0.70;;
22632;SDS011;11483;55.828;37.488;2023-03-05T05:46:04;2.47;;;1.07;;
22632;SDS011;11483;55.828;37.488;2023-03-05T05:48:32;0.83;;;0.63;;
22632;SDS011;11483;55.828;37.488;2023-03-05T05:50:59;1.53;;;0.77;;
22632;SDS011;11483;55.828;37.488;2023-03-05T05:53:33;0.83;;;0.73;;
22632;SDS011;11483;55.828;37.488;2023-03-05T05:55:58;1.10;;;0.57;;
22632;SDS011;11483;55.828;37.488;2023-03-05T05:58:24;1.30;;;0.80;;
22632;SDS011;11483;55.828;37.488;2023-03-05T06:00:50;3.27;;;0.90;;
22632;SDS011;11483;55.828;37.488;2023-03-05T06:03:16;0.93;;;0.80;;
22632;SDS011;11483;55.828;37.488;2023-03-05T06:05:42;2.20;;;0.80;;
22632;SDS011;11483;55.828;37.488;2023-03-05T06:08:08;1.63;;;0.80;;
22632;SDS011;11483;55.828;37.488;2023-03-05T06:10:34;3.33;;;0.80;;
22632;SDS011;11483;55.828;37.488;2023-03-05T06:13:00;3.83;;;0.73;;
22632;SDS011;11483;55.828;37.488;2023-03-05T06:15:26;1.03;;;0.80;;
22632;SDS011;11483;55.828;37.488;2023-03-05T06:17:52;1.10;;;0.70;;
22632;SDS011;11483;55.828;37.488;2023-03-05T06:20:18;1.10;;;0.73;;
22632;SDS011;11483;55.828;37.488;2023-03-05T06:22:45;4.90;;;1.00;;
22632;SDS011;11483;55.828;37.488;2023-03-05T06:25:11;2.10;;;0.90;;
22632;SDS011;11483;55.828;37.488;2023-03-05T06:27:37;1.00;;;0.90;;
22632;SDS011;11483;55.828;37.488;2023-03-05T06:30:04;0.83;;;0.70;;
22632;SDS011;11483;55.828;37.488;2023-03-05T06:32:31;2.60;;;1.10;;
22632;SDS011;11483;55.828;37.488;2023-03-05T06:34:56;3.87;;;0.90;;
22632;SDS011;11483;55.828;37.488;2023-03-05T06:37:22;2.53;;;1.00;;
22632;SDS011;11483;55.828;37.488;2023-03-05T06:39:48;3.30;;;1.00;;
22632;SDS011;11483;55.828;37.488;2023-03-05T06:42:14;5.27;;;0.90;;
22632;SDS011;11483;55.828;37.488;2023-03-05T06:44:42;3.80;;;1.10;;
22632;SDS011;11483;55.828;37.488;2023-03-05T06:47:08;2.10;;;1.10;;
22632;SDS011;11483;55.828;37.488;2023-03-05T06:49:34;5.80;;;1.10;;
22632;SDS011;11483;55.828;37.488;2023-03-05T06:52:01;1.17;;;0.80;;
22632;SDS011;11483;55.828;37.488;2023-03-05T06:54:27;0.80;;;0.80;;
22632;SDS011;11483;55.828;37.488;2023-03-05T06:56:53;15.60;;;1.30;;
22632;SDS011;11483;55.828;37.488;2023-03-05T06:59:19;4.50;;;1.27;;
22632;SDS011;11483;55.828;37.488;2023-03-05T07:01:46;6.17;;;1.33;;
22632;SDS011;11483;55.828;37.488;2023-03-05T07:04:12;4.23;;;1.20;;
22632;SDS011;11483;55.828;37.488;2023-03-05T07:06:39;3.47;;;1.60;;
22632;SDS011;11483;55.828;37.488;2023-03-05T07:09:07;5.90;;;1.53;;
22632;SDS011;11483;55.828;37.488;2023-03-05T07:11:35;4.93;;;1.50;;
22632;SDS011;11483;55.828;37.488;2023-03-05T07:14:01;11.03;;;1.90;;
22632;SDS011;11483;55.828;37.488;2023-03-05T07:16:29;7.20;;;1.73;;
22632;SDS011;11483;55.828;37.488;2023-03-05T07:18:57;2.63;;;1.50;;
22632;SDS011;11483;55.828;37.488;2023-03-05T07:21:25;3.17;;;1.80;;
22632;SDS011;11483;55.828;37.488;2023-03-05T07:23:53;3.23;;;2.00;;
22632;SDS011;11483;55.828;37.488;2023-03-05T07:26:20;2.57;;;1.77;;
22632;SDS011;11483;55.828;37.488;2023-03-05T07:28:47;2.67;;;1.80;;
22632;SDS011;11483;55.828;37.488;2023-03-05T07:31:20;4.37;;;1.80;;
22632;SDS011;11483;55.828;37.488;2023-03-05T07:33:50;5.03;;;2.30;;
22632;SDS011;11483;55.828;37.488;2023-03-05T07:36:17;3.30;;;2.00;;
22632;SDS011;11483;55.828;37.488;2023-03-05T07:38:43;4.47;;;2.40;;
22632;SDS011;11483;55.828;37.488;2023-03-05T07:41:11;4.17;;;2.37;;
22632;SDS011;11483;55.828;37.488;2023-03-05T07:43:38;8.70;;;2.70;;
22632;SDS011;11483;55.828;37.488;2023-03-05T07:46:08;4.33;;;2.33;;
22632;SDS011;11483;55.828;37.488;2023-03-05T07:48:38;3.67;;;2.10;;
22632;SDS011;11483;55.828;37.488;2023-03-05T07:51:05;7.80;;;2.40;;
22632;SDS011;11483;55.828;37.488;2023-03-05T07:53:32;4.87;;;2.60;;
22632;SDS011;11483;55.828;37.488;2023-03-05T07:55:58;6.67;;;2.63;;
22632;SDS011;11483;55.828;37.488;2023-03-05T07:58:24;4.53;;;2.50;;
22632;SDS011;11483;55.828;37.488;2023-03-05T08:00:50;3.10;;;2.10;;
22632;SDS011;11483;55.828;37.488;2023-03-05T08:03:16;3.23;;;2.20;;
22632;SDS011;11483;55.828;37.488;2023-03-05T08:05:42;4.07;;;2.20;;
22632;SDS011;11483;55.828;37.488;2023-03-05T08:08:09;5.87;;;2.70;;
22632;SDS011;11483;55.828;37.488;2023-03-05T08:10:36;3.97;;;2.50;;
22632;SDS011;11483;55.828;37.488;2023-03-05T08:13:02;2.63;;;1.67;;
22632;SDS011;11483;55.828;37.488;2023-03-05T08:15:28;3.00;;;2.13;;
22632;SDS011;11483;55.828;37.488;2023-03-05T08:17:55;8.43;;;2.50;;
22632;SDS011;11483;55.828;37.488;2023-03-05T08:20:22;4.33;;;2.00;;
22632;SDS011;11483;55.828;37.488;2023-03-05T08:22:48;4.17;;;2.30;;
22632;SDS011;11483;55.828;37.488;2023-03-05T08:25:14;4.60;;;2.10;;
22632;SDS011;11483;55.828;37.488;2023-03-05T08:27:41;2.50;;;1.97;;
22632;SDS011;11483;55.828;37.488;2023-03-05T08:30:13;4.90;;;2.53;;
22632;SDS011;11483;55.828;37.488;2023-03-05T08:32:43;2.70;;;1.90;;
22632;SDS011;11483;55.828;37.488;2023-03-05T08:35:09;7.30;;;2.30;;
22632;SDS011;11483;55.828;37.488;2023-03-05T08:37:35;4.93;;;2.13;;
22632;SDS011;11483;55.828;37.488;2023-03-05T08:40:02;2.83;;;1.93;;
22632;SDS011;11483;55.828;37.488;2023-03-05T08:42:29;2.73;;;1.40;;
22632;SDS011;11483;55.828;37.488;2023-03-05T08:44:55;3.40;;;1.83;;
22632;SDS011;11483;55.828;37.488;2023-03-05T08:47:21;3.33;;;2.10;;
22632;SDS011;11483;55.828;37.488;2023-03-05T08:49:49;3.13;;;2.07;;
22632;SDS011;11483;55.828;37.488;2023-03-05T08:52:20;4.97;;;1.93;;
22632;SDS011;11483;55.828;37.488;2023-03-05T08:54:46;3.40;;;2.37;;
22632;SDS011;11483;55.828;37.488;2023-03-05T08:57:12;5.70;;;1.93;;
22632;SDS011;11483;55.828;37.488;2023-03-05T08:59:38;3.23;;;2.27;;
22632;SDS011;11483;55.828;37.488;2023-03-05T09:02:04;2.77;;;2.17;;
22632;SDS011;11483;55.828;37.488;2023-03-05T09:04:30;6.63;;;2.70;;
22632;SDS011;11483;55.828;37.488;2023-03-05T09:06:56;3.33;;;2.20;;
22632;SDS011;11483;55.828;37.488;2023-03-05T09:09:22;3.53;;;2.10;;
22632;SDS011;11483;55.828;37.488;2023-03-05T09:11:49;2.97;;;2.20;;
22632;SDS011;11483;55.828;37.488;2023-03-05T09:14:16;4.37;;;2.23;;
22632;SDS011;11483;55.828;37.488;2023-03-05T09:16:41;6.23;;;2.60;;
22632;SDS011;11483;55.828;37.488;2023-03-05T09:19:07;5.77;;;2.50;;
22632;SDS011;11483;55.828;37.488;2023-03-05T09:21:34;5.33;;;2.50;;
22632;SDS011;11483;55.828;37.488;2023-03-05T09:24:00;10.73;;;2.77;;
22632;SDS011;11483;55.828;37.488;2023-03-05T09:26:27;5.30;;;2.63;;
22632;SDS011;11483;55.828;37.488;2023-03-05T09:28:53;4.77;;;2.60;;
22632;SDS011;11483;55.828;37.488;2023-03-05T09:31:19;6.00;;;3.13;;
22632;SDS011;11483;55.828;37.488;2023-03-05T09:33:46;2.93;;;2.20;;
22632;SDS011;11483;55.828;37.488;2023-03-05T09:36:18;4.30;;;2.73;;
22632;SDS011;11483;55.828;37.488;2023-03-05T09:38:46;5.57;;;2.13;;
22632;SDS011;11483;55.828;37.488;2023-03-05T09:46:51;3.30;;;2.03;;
22632;SDS011;11483;55.828;37.488;2023-03-05T09:49:49;6.67;;;2.47;;
22632;SDS011;11483;55.828;37.488;2023-03-05T09:52:36;4.17;;;2.43;;
22632;SDS011;11483;55.828;37.488;2023-03-05T09:55:12;5.70;;;2.80;;
22632;SDS011;11483;55.828;37.488;2023-03-05T09:57:50;3.17;;;1.93;;
22632;SDS011;11483;55.828;37.488;2023-03-05T10:00:37;5.30;;;3.00;;
22632;SDS011;11483;55.828;37.488;2023-03-05T10:03:23;10.33;;;2.70;;
22632;SDS011;11483;55.828;37.488;2023-03-05T10:09:05;5.03;;;2.50;;
22632;SDS011;11483;55.828;37.488;2023-03-05T10:14:00;6.70;;;3.70;;
22632;SDS011;11483;55.828;37.488;2023-03-05T10:19:17;4.30;;;2.97;;
22632;SDS011;11483;55.828;37.488;2023-03-05T10:22:02;4.47;;;2.77;;
22632;SDS011;11483;55.828;37.488;2023-03-05T10:24:50;7.67;;;3.23;;
22632;SDS011;11483;55.828;37.488;2023-03-05T10:33:17;8.57;;;4.33;;
22632;SDS011;11483;55.828;37.488;2023-03-05T10:38:43;9.47;;;4.27;;
22632;SDS011;11483;55.828;37.488;2023-03-05T10:44:18;8.67;;;4.00;;
22632;SDS011;11483;55.828;37.488;2023-03-05T10:46:57;8.70;;;4.53;;
22632;SDS011;11483;55.828;37.488;2023-03-05T10:49:27;6.20;;;3.83;;
22632;SDS011;11483;55.828;37.488;2023-03-05T10:54:40;6.47;;;3.60;;
22632;SDS011;11483;55.828;37.488;2023-03-05T10:57:15;4.93;;;3.30;;
22632;SDS011;11483;55.828;37.488;2023-03-05T11:08:25;4.97;;;2.80;;
22632;SDS011;11483;55.828;37.488;2023-03-05T11:13:39;7.00;;;2.83;;
22632;SDS011;11483;55.828;37.488;2023-03-05T11:16:13;6.00;;;3.60;;
22632;SDS011;11483;55.828;37.488;2023-03-05T11:18:44;4.23;;;2.93;;
22632;SDS011;11483;55.828;37.488;2023-03-05T11:21:12;6.57;;;3.50;;
22632;SDS011;11483;55.828;37.488;2023-03-05T11:24:27;4.87;;;3.33;;
22632;SDS011;11483;55.828;37.488;2023-03-05T11:26:45;7.57;;;4.07;;
22632;SDS011;11483;55.828;37.488;2023-03-05T11:29:18;7.17;;;3.10;;
22632;SDS011;11483;55.828;37.488;2023-03-05T11:31:46;6.67;;;3.80;;
22632;SDS011;11483;55.828;37.488;2023-03-05T11:36:42;4.73;;;2.83;;
22632;SDS011;11483;55.828;37.488;2023-03-05T11:39:23;4.43;;;2.70;;
22632;SDS011;11483;55.828;37.488;2023-03-05T11:41:50;4.50;;;2.60;;
22632;SDS011;11483;55.828;37.488;2023-03-05T11:44:23;2.73;;;2.10;;
22632;SDS011;11483;55.828;37.488;2023-03-05T11:46:56;6.07;;;2.60;;
22632;SDS011;11483;55.828;37.488;2023-03-05T11:49:28;3.03;;;2.23;;
22632;SDS011;11483;55.828;37.488;2023-03-05T11:55:04;3.97;;;2.60;;
22632;SDS011;11483;55.828;37.488;2023-03-05T11:57:42;5.57;;;2.50;;
22632;SDS011;11483;55.828;37.488;2023-03-05T12:00:23;3.70;;;2.67;;
22632;SDS011;11483;55.828;37.488;2023-03-05T12:02:53;4.77;;;2.60;;
22632;SDS011;11483;55.828;37.488;2023-03-05T12:05:29;5.30;;;3.07;;
22632;SDS011;11483;55.828;37.488;2023-03-05T12:07:57;6.63;;;3.70;;
22632;SDS011;11483;55.828;37.488;2023-03-05T12:10:25;9.87;;;3.63;;
22632;SDS011;11483;55.828;37.488;2023-03-05T12:15:58;5.50;;;2.77;;
22632;SDS011;11483;55.828;37.488;2023-03-05T12:21:25;7.23;;;3.70;;
22632;SDS011;11483;55.828;37.488;2023-03-05T12:24:01;6.93;;;3.60;;
22632;SDS011;11483;55.828;37.488;2023-03-05T12:29:29;7.23;;;3.17;;
22632;SDS011;11483;55.828;37.488;2023-03-05T12:32:04;9.70;;;3.27;;
22632;SDS011;11483;55.828;37.488;2023-03-05T12:40:19;7.23;;;3.80;;
22632;SDS011;11483;55.828;37.488;2023-03-05T12:43:02;3.97;;;2.33;;
22632;SDS011;11483;55.828;37.488;2023-03-05T12:45:47;8.53;;;3.37;;
22632;SDS011;11483;55.828;37.488;2023-03-05T12:53:10;6.10;;;2.70;;
22632;SDS011;11483;55.828;37.488;2023-03-05T13:03:44;8.40;;;2.60;;
22632;SDS011;11483;55.828;37.488;2023-03-05T13:08:54;7.27;;;2.83;;
22632;SDS011;11483;55.828;37.488;2023-03-05T13:11:21;9.13;;;3.80;;
22632;SDS011;11483;55.828;37.488;2023-03-05T13:13:47;5.97;;;3.93;;
22632;SDS011;11483;55.828;37.488;2023-03-05T13:16:18;8.63;;;3.47;;
22632;SDS011;11483;55.828;37.488;2023-03-05T13:18:50;6.27;;;3.60;;
22632;SDS011;11483;55.828;37.488;2023-03-05T13:21:18;9.30;;;3.40;;
22632;SDS011;11483;55.828;37.488;2023-03-05T13:23:49;13.97;;;3.70;;
22632;SDS011;11483;55.828;37.488;2023-03-05T13:26:29;7.77;;;3.53;;
22632;SDS011;11483;55.828;37.488;2023-03-05T13:29:15;9.07;;;3.87;;
22632;SDS011;11483;55.828;37.488;2023-03-05T13:31:44;6.43;;;2.80;;
22632;SDS011;11483;55.828;37.488;2023-03-05T13:34:22;5.60;;;2.60;;
22632;SDS011;11483;55.828;37.488;2023-03-05T13:39:31;4.07;;;2.30;;
22632;SDS011;11483;55.828;37.488;2023-03-05T13:42:03;6.70;;;2.63;;
22632;SDS011;11483;55.828;37.488;2023-03-05T13:44:32;3.63;;;1.57;;
22632;SDS011;11483;55.828;37.488;2023-03-05T13:47:06;7.97;;;3.63;;
22632;SDS011;11483;55.828;37.488;2023-03-05T13:49:38;10.17;;;2.23;;
22632;SDS011;11483;55.828;37.488;2023-03-05T13:52:04;4.57;;;2.37;;
22632;SDS011;11483;55.828;37.488;2023-03-05T13:54:30;3.80;;;1.70;;
22632;SDS011;11483;55.828;37.488;2023-03-05T13:56:57;3.80;;;2.07;;
22632;SDS011;11483;55.828;37.488;2023-03-05T13:59:26;3.33;;;2.20;;
22632;SDS011;11483;55.828;37.488;2023-03-05T14:01:59;3.07;;;2.10;;
22632;SDS011;11483;55.828;37.488;2023-03-05T14:04:29;5.73;;;3.00;;
22632;SDS011;11483;55.828;37.488;2023-03-05T14:07:07;4.17;;;2.20;;
22632;SDS011;11483;55.828;37.488;2023-03-05T14:09:46;6.27;;;2.97;;
22632;SDS011;11483;55.828;37.488;2023-03-05T14:12:24;5.40;;;2.80;;
22632;SDS011;11483;55.828;37.488;2023-03-05T14:15:24;5.87;;;2.80;;
22632;SDS011;11483;55.828;37.488;2023-03-05T14:18:14;4.70;;;2.77;;
22632;SDS011;11483;55.828;37.488;2023-03-05T14:23:48;8.80;;;2.97;;
22632;SDS011;11483;55.828;37.488;2023-03-05T14:34:20;6.87;;;3.10;;
22632;SDS011;11483;55.828;37.488;2023-03-05T14:36:47;5.97;;;2.87;;
22632;SDS011;11483;55.828;37.488;2023-03-05T14:39:31;5.97;;;3.00;;
22632;SDS011;11483;55.828;37.488;2023-03-05T14:44:46;5.97;;;3.00;;
22632;SDS011;11483;55.828;37.488;2023-03-05T14:47:12;8.00;;;2.73;;
22632;SDS011;11483;55.828;37.488;2023-03-05T14:49:38;5.43;;;2.90;;
22632;SDS011;11483;55.828;37.488;2023-03-05T14:52:04;5.40;;;2.70;;
22632;SDS011;11483;55.828;37.488;2023-03-05T14:54:31;5.90;;;2.93;;
22632;SDS011;11483;55.828;37.488;2023-03-05T14:57:02;6.17;;;3.10;;
22632;SDS011;11483;55.828;37.488;2023-03-05T14:59:29;8.57;;;3.60;;
22632;SDS011;11483;55.828;37.488;2023-03-05T15:01:55;5.87;;;3.00;;
22632;SDS011;11483;55.828;37.488;2023-03-05T15:04:21;5.63;;;2.73;;
22632;SDS011;11483;55.828;37.488;2023-03-05T15:06:47;5.63;;;2.90;;
22632;SDS011;11483;55.828;37.488;2023-03-05T15:09:15;4.87;;;2.90;;
22632;SDS011;11483;55.828;37.488;2023-03-05T15:11:43;4.73;;;2.80;;
22632;SDS011;11483;55.828;37.488;2023-03-05T15:14:10;5.83;;;2.73;;
22632;SDS011;11483;55.828;37.488;2023-03-05T15:16:37;5.10;;;3.00;;
22632;SDS011;11483;55.828;37.488;2023-03-05T15:19:05;7.33;;;3.40;;
22632;SDS011;11483;55.828;37.488;2023-03-05T15:21:31;4.90;;;3.07;;
22632;SDS011;11483;55.828;37.488;2023-03-05T15:23:57;9.77;;;3.57;;
22632;SDS011;11483;55.828;37.488;2023-03-05T15:26:23;6.93;;;3.27;;
22632;SDS011;11483;55.828;37.488;2023-03-05T15:28:49;5.50;;;3.30;;
22632;SDS011;11483;55.828;37.488;2023-03-05T15:31:15;7.17;;;3.17;;
22632;SDS011;11483;55.828;37.488;2023-03-05T15:33:42;7.17;;;3.33;;
22632;SDS011;11483;55.828;37.488;2023-03-05T15:36:08;7.67;;;2.80;;
22632;SDS011;11483;55.828;37.488;2023-03-05T15:38:34;8.80;;;2.90;;
22632;SDS011;11483;55.828;37.488;2023-03-05T15:41:03;5.60;;;3.07;;
22632;SDS011;11483;55.828;37.488;2023-03-05T15:43:30;4.47;;;3.10;;
22632;SDS011;11483;55.828;37.488;2023-03-05T15:45:55;8.30;;;3.50;;
22632;SDS011;11483;55.828;37.488;2023-03-05T15:48:21;6.87;;;2.73;;
22632;SDS011;11483;55.828;37.488;2023-03-05T15:50:47;7.13;;;3.30;;
22632;SDS011;11483;55.828;37.488;2023-03-05T15:53:13;8.57;;;3.17;;
22632;SDS011;11483;55.828;37.488;2023-03-05T15:55:41;6.50;;;3.23;;
22632;SDS011;11483;55.828;37.488;2023-03-05T15:58:08;5.03;;;3.13;;
22632;SDS011;11483;55.828;37.488;2023-03-05T16:00:37;8.00;;;3.67;;
22632;SDS011;11483;55.828;37.488;2023-03-05T16:03:04;7.70;;;3.40;;
22632;SDS011;11483;55.828;37.488;2023-03-05T16:05:31;7.30;;;3.27;;
22632;SDS011;11483;55.828;37.488;2023-03-05T16:07:58;6.97;;;3.33;;
22632;SDS011;11483;55.828;37.488;2023-03-05T16:10:25;5.13;;;2.80;;
22632;SDS011;11483;55.828;37.488;2023-03-05T16:12:54;7.23;;;3.13;;
22632;SDS011;11483;55.828;37.488;2023-03-05T16:15:32;5.67;;;3.33;;
22632;SDS011;11483;55.828;37.488;2023-03-05T16:17:59;3.63;;;2.57;;